BEE43C EGJB-EGAC
Flight info
| Callsign | BEE43C |
|---|---|
| Flight time | 1h 8m |
| Altitude | 37000 |
| Route | SKERY DCT DAWLY DCT BCN DCT SEMMU DCT IOM DCT NELBO DCT MAGEE |
| Aircraft | E75L/M-SDE3GILORVW/S |
Departure
| Time | 2026-04-28 20:57 |
|---|---|
| Airport | Guernsey Airport (EGJB) |
Arrival
| Time | 2026-04-28 22:05 |
|---|---|
| Airport | George Best Belfast City Airport (EGAC) |
| Time | Latitude | Longitude | Altitude | Speed | Heading |
|---|---|---|---|---|---|
| 2026-04-28 20:44 | 49.43255 | -2.59620 | 326 ft | 0 kts | 178° |
| 2026-04-28 20:49 | 49.43257 | -2.59620 | 326 ft | 2 kts | 178° |
| 2026-04-28 20:49 | 49.43279 | -2.59621 | 325 ft | 2 kts | 178° |
| 2026-04-28 20:49 | 49.43305 | -2.59623 | 326 ft | 4 kts | 178° |
| 2026-04-28 20:49 | 49.43328 | -2.59624 | 327 ft | 1 kts | 178° |
| 2026-04-28 20:50 | 49.43351 | -2.59618 | 324 ft | 4 kts | 215° |
| 2026-04-28 20:50 | 49.43363 | -2.59585 | 325 ft | 4 kts | 264° |
| 2026-04-28 20:50 | 49.43363 | -2.59575 | 325 ft | 0 kts | 268° |
| 2026-04-28 20:53 | 49.43362 | -2.59619 | 326 ft | 10 kts | 268° |
| 2026-04-28 20:53 | 49.43351 | -2.59766 | 322 ft | 17 kts | 259° |
| 2026-04-28 20:54 | 49.43342 | -2.59986 | 313 ft | 26 kts | 269° |
| 2026-04-28 20:54 | 49.43333 | -2.60308 | 292 ft | 33 kts | 268° |
| 2026-04-28 20:54 | 49.43325 | -2.60581 | 292 ft | 19 kts | 267° |
| 2026-04-28 20:54 | 49.43346 | -2.60775 | 297 ft | 18 kts | 279° |
| 2026-04-28 20:55 | 49.43364 | -2.60942 | 306 ft | 14 kts | 279° |
| 2026-04-28 20:55 | 49.43366 | -2.61072 | 307 ft | 12 kts | 262° |
| 2026-04-28 20:55 | 49.43359 | -2.61220 | 311 ft | 16 kts | 275° |
| 2026-04-28 20:55 | 49.43384 | -2.61303 | 312 ft | 8 kts | 311° |
| 2026-04-28 20:56 | 49.43427 | -2.61354 | 314 ft | 6 kts | 343° |
| 2026-04-28 20:56 | 49.43462 | -2.61335 | 312 ft | 6 kts | 63° |
| 2026-04-28 20:56 | 49.43475 | -2.61051 | 310 ft | 63 kts | 86° |
| 2026-04-28 20:56 | 49.43508 | -2.59975 | 321 ft | 135 kts | 81° |
| 2026-04-28 20:57 | 49.43613 | -2.58419 | 940 ft | 151 kts | 73° |
| 2026-04-28 20:57 | 49.44034 | -2.57156 | 1306 ft | 121 kts | 46° |
| 2026-04-28 20:57 | 49.44879 | -2.56633 | 1468 ft | 153 kts | 11° |
| 2026-04-28 20:57 | 49.45945 | -2.57322 | 2088 ft | 196 kts | 323° |
| 2026-04-28 20:58 | 49.46600 | -2.59277 | 2804 ft | 215 kts | 295° |
| 2026-04-28 20:58 | 49.47091 | -2.61536 | 3268 ft | 230 kts | 300° |
| 2026-04-28 20:58 | 49.47884 | -2.63668 | 3961 ft | 230 kts | 308° |
| 2026-04-28 20:58 | 49.48771 | -2.65740 | 4772 ft | 236 kts | 310° |
| 2026-04-28 20:59 | 49.49751 | -2.67880 | 5386 ft | 252 kts | 311° |
| 2026-04-28 20:59 | 49.50789 | -2.70072 | 6240 ft | 255 kts | 311° |
| 2026-04-28 20:59 | 49.51876 | -2.72321 | 6814 ft | 270 kts | 311° |
| 2026-04-28 20:59 | 49.53041 | -2.74690 | 7304 ft | 285 kts | 311° |
| 2026-04-28 21:00 | 49.54273 | -2.77171 | 7783 ft | 298 kts | 311° |
| 2026-04-28 21:00 | 49.55639 | -2.79555 | 8489 ft | 295 kts | 326° |
| 2026-04-28 21:00 | 49.57313 | -2.81272 | 9229 ft | 294 kts | 333° |
| 2026-04-28 21:00 | 49.59109 | -2.82889 | 9920 ft | 297 kts | 336° |
| 2026-04-28 21:01 | 49.60901 | -2.84436 | 10544 ft | 299 kts | 335° |
| 2026-04-28 21:01 | 49.62777 | -2.86017 | 10840 ft | 316 kts | 336° |
| 2026-04-28 21:01 | 49.64793 | -2.87662 | 11134 ft | 330 kts | 336° |
| 2026-04-28 21:01 | 49.66850 | -2.89330 | 11593 ft | 337 kts | 336° |
| 2026-04-28 21:02 | 49.68777 | -2.91425 | 12170 ft | 344 kts | 319° |
| 2026-04-28 21:02 | 49.70395 | -2.94109 | 12744 ft | 350 kts | 315° |
| 2026-04-28 21:02 | 49.72001 | -2.96961 | 13379 ft | 352 kts | 314° |
| 2026-04-28 21:02 | 49.73674 | -2.99719 | 14032 ft | 352 kts | 322° |
| 2026-04-28 21:03 | 49.75623 | -3.01992 | 14641 ft | 352 kts | 330° |
| 2026-04-28 21:03 | 49.77722 | -3.03959 | 15236 ft | 353 kts | 335° |
| 2026-04-28 21:03 | 49.79910 | -3.05704 | 15845 ft | 355 kts | 338° |
| 2026-04-28 21:03 | 49.82165 | -3.07304 | 16451 ft | 358 kts | 340° |
| 2026-04-28 21:04 | 49.84467 | -3.08844 | 17070 ft | 362 kts | 341° |
| 2026-04-28 21:04 | 49.86800 | -3.10363 | 17693 ft | 366 kts | 341° |
| 2026-04-28 21:04 | 49.89171 | -3.11836 | 18347 ft | 368 kts | 345° |
| 2026-04-28 21:04 | 49.91607 | -3.13097 | 18941 ft | 371 kts | 346° |
| 2026-04-28 21:05 | 49.94067 | -3.14346 | 19555 ft | 373 kts | 347° |
| 2026-04-28 21:05 | 49.96543 | -3.15571 | 20156 ft | 375 kts | 348° |
| 2026-04-28 21:05 | 49.99033 | -3.16813 | 20742 ft | 377 kts | 348° |
| 2026-04-28 21:05 | 50.01537 | -3.18084 | 21317 ft | 381 kts | 348° |
| 2026-04-28 21:06 | 50.04065 | -3.19351 | 21924 ft | 383 kts | 349° |
| 2026-04-28 21:06 | 50.06586 | -3.20620 | 22735 ft | 380 kts | 350° |
| 2026-04-28 21:06 | 50.09118 | -3.21881 | 23391 ft | 383 kts | 350° |
| 2026-04-28 21:06 | 50.11663 | -3.23157 | 23968 ft | 386 kts | 350° |
| 2026-04-28 21:07 | 50.14236 | -3.24449 | 24471 ft | 390 kts | 350° |
| 2026-04-28 21:07 | 50.16816 | -3.25776 | 24958 ft | 392 kts | 351° |
| 2026-04-28 21:07 | 50.19432 | -3.27067 | 25478 ft | 395 kts | 352° |
| 2026-04-28 21:07 | 50.22060 | -3.28388 | 25988 ft | 399 kts | 351° |
| 2026-04-28 21:08 | 50.24717 | -3.29732 | 26486 ft | 403 kts | 351° |
| 2026-04-28 21:08 | 50.27400 | -3.31091 | 26961 ft | 407 kts | 351° |
| 2026-04-28 21:08 | 50.30099 | -3.32460 | 27430 ft | 410 kts | 351° |
| 2026-04-28 21:08 | 50.32826 | -3.33844 | 27885 ft | 413 kts | 351° |
| 2026-04-28 21:09 | 50.35572 | -3.35238 | 28326 ft | 417 kts | 351° |
| 2026-04-28 21:09 | 50.38340 | -3.36649 | 28744 ft | 420 kts | 351° |
| 2026-04-28 21:09 | 50.41134 | -3.38069 | 29181 ft | 423 kts | 351° |
| 2026-04-28 21:09 | 50.43942 | -3.39499 | 29677 ft | 425 kts | 351° |
| 2026-04-28 21:10 | 50.46754 | -3.40936 | 30304 ft | 425 kts | 351° |
| 2026-04-28 21:10 | 50.49561 | -3.42368 | 30815 ft | 424 kts | 351° |
| 2026-04-28 21:10 | 50.52365 | -3.43802 | 31304 ft | 424 kts | 351° |
| 2026-04-28 21:10 | 50.55145 | -3.45052 | 31737 ft | 416 kts | 357° |
| 2026-04-28 21:11 | 50.58019 | -3.45572 | 32198 ft | 407 kts | 5° |
| 2026-04-28 21:11 | 50.60801 | -3.45646 | 32625 ft | 399 kts | 11° |
| 2026-04-28 21:11 | 50.63580 | -3.45320 | 33120 ft | 394 kts | 13° |
| 2026-04-28 21:11 | 50.66274 | -3.44889 | 33530 ft | 394 kts | 13° |
| 2026-04-28 21:12 | 50.68994 | -3.44428 | 33936 ft | 394 kts | 13° |
| 2026-04-28 21:12 | 50.71720 | -3.43960 | 34332 ft | 394 kts | 13° |
| 2026-04-28 21:12 | 50.74454 | -3.43490 | 34656 ft | 395 kts | 13° |
| 2026-04-28 21:12 | 50.77184 | -3.43020 | 34993 ft | 396 kts | 13° |
| 2026-04-28 21:13 | 50.79925 | -3.42549 | 35316 ft | 396 kts | 13° |
| 2026-04-28 21:13 | 50.82671 | -3.42076 | 35632 ft | 398 kts | 12° |
| 2026-04-28 21:13 | 50.85408 | -3.41611 | 36088 ft | 394 kts | 13° |
| 2026-04-28 21:13 | 50.88139 | -3.41132 | 36429 ft | 395 kts | 13° |
| 2026-04-28 21:14 | 50.90874 | -3.40659 | 36758 ft | 396 kts | 12° |
| 2026-04-28 21:14 | 50.93614 | -3.40187 | 37071 ft | 397 kts | 12° |
| 2026-04-28 21:14 | 50.96304 | -3.39730 | 37161 ft | 379 kts | 12° |
| 2026-04-28 21:14 | 50.98927 | -3.39268 | 37214 ft | 382 kts | 12° |
| 2026-04-28 21:15 | 51.04335 | -3.38327 | 37291 ft | 400 kts | 12° |
| 2026-04-28 21:15 | 51.09842 | -3.37375 | 37273 ft | 395 kts | 12° |
| 2026-04-28 21:16 | 51.15320 | -3.36419 | 37288 ft | 396 kts | 12° |
| 2026-04-28 21:16 | 51.20799 | -3.35460 | 37277 ft | 396 kts | 12° |
| 2026-04-28 21:17 | 51.26282 | -3.34499 | 37290 ft | 396 kts | 12° |
| 2026-04-28 21:17 | 51.31745 | -3.33540 | 37272 ft | 396 kts | 12° |
| 2026-04-28 21:18 | 51.37239 | -3.32574 | 37300 ft | 397 kts | 12° |
| 2026-04-28 21:18 | 51.42724 | -3.31607 | 37292 ft | 397 kts | 12° |
| 2026-04-28 21:19 | 51.48216 | -3.30636 | 37292 ft | 397 kts | 12° |
| 2026-04-28 21:19 | 51.53704 | -3.29664 | 37272 ft | 396 kts | 12° |
| 2026-04-28 21:20 | 51.59174 | -3.28689 | 37307 ft | 396 kts | 12° |
| 2026-04-28 21:20 | 51.64651 | -3.27714 | 37371 ft | 395 kts | 12° |
| 2026-04-28 21:21 | 51.70135 | -3.26940 | 37403 ft | 401 kts | 4° |
| 2026-04-28 21:21 | 51.75652 | -3.28709 | 37396 ft | 416 kts | 346° |
| 2026-04-28 21:22 | 51.81026 | -3.32405 | 37385 ft | 418 kts | 342° |
| 2026-04-28 21:22 | 51.85444 | -3.35592 | 37363 ft | 418 kts | 342° |
| 2026-04-28 21:23 | 51.91617 | -3.40066 | 37355 ft | 418 kts | 342° |
| 2026-04-28 21:23 | 51.96912 | -3.43911 | 37351 ft | 414 kts | 343° |
| 2026-04-28 21:24 | 52.02168 | -3.47742 | 37321 ft | 411 kts | 343° |
| 2026-04-28 21:24 | 52.07406 | -3.51561 | 37368 ft | 413 kts | 343° |
| 2026-04-28 21:25 | 52.12642 | -3.55395 | 37355 ft | 412 kts | 343° |
| 2026-04-28 21:25 | 52.17875 | -3.59236 | 37361 ft | 413 kts | 343° |
| 2026-04-28 21:26 | 52.23109 | -3.63086 | 37343 ft | 413 kts | 343° |
| 2026-04-28 21:26 | 52.28319 | -3.66929 | 37370 ft | 411 kts | 343° |
| 2026-04-28 21:27 | 52.33534 | -3.70786 | 37366 ft | 411 kts | 343° |
| 2026-04-28 21:27 | 52.38744 | -3.74649 | 37373 ft | 411 kts | 343° |
| 2026-04-28 21:28 | 52.43952 | -3.78522 | 37367 ft | 411 kts | 343° |
| 2026-04-28 21:28 | 52.49172 | -3.82411 | 37342 ft | 412 kts | 343° |
| 2026-04-28 21:29 | 52.54381 | -3.86305 | 37379 ft | 411 kts | 343° |
| 2026-04-28 21:29 | 52.59594 | -3.90211 | 37363 ft | 411 kts | 343° |
| 2026-04-28 21:30 | 52.64795 | -3.94117 | 37386 ft | 411 kts | 343° |
| 2026-04-28 21:30 | 52.70004 | -3.98041 | 37355 ft | 411 kts | 343° |
| 2026-04-28 21:31 | 52.74321 | -4.01298 | 37377 ft | 411 kts | 343° |
| 2026-04-28 21:31 | 52.79554 | -4.04841 | 37389 ft | 403 kts | 348° |
| 2026-04-28 21:32 | 52.84865 | -4.07792 | 37382 ft | 402 kts | 349° |
| 2026-04-28 21:32 | 52.90179 | -4.10694 | 37391 ft | 402 kts | 349° |
| 2026-04-28 21:33 | 52.95488 | -4.13599 | 37374 ft | 401 kts | 349° |
| 2026-04-28 21:33 | 53.00794 | -4.16516 | 37397 ft | 402 kts | 349° |
| 2026-04-28 21:34 | 53.06109 | -4.19447 | 37411 ft | 402 kts | 349° |
| 2026-04-28 21:34 | 53.11419 | -4.22376 | 37313 ft | 403 kts | 349° |
| 2026-04-28 21:35 | 53.14073 | -4.23848 | 36954 ft | 401 kts | 349° |
| 2026-04-28 21:35 | 53.16712 | -4.25311 | 36611 ft | 399 kts | 349° |
| 2026-04-28 21:35 | 53.19345 | -4.26768 | 36253 ft | 398 kts | 349° |
| 2026-04-28 21:35 | 53.21976 | -4.28232 | 35933 ft | 399 kts | 349° |
| 2026-04-28 21:36 | 53.24606 | -4.29695 | 35621 ft | 399 kts | 349° |
| 2026-04-28 21:36 | 53.27236 | -4.31161 | 35309 ft | 399 kts | 349° |
| 2026-04-28 21:36 | 53.29869 | -4.32629 | 35005 ft | 399 kts | 350° |
| 2026-04-28 21:36 | 53.32502 | -4.34100 | 34702 ft | 399 kts | 350° |
| 2026-04-28 21:37 | 53.35130 | -4.35570 | 34401 ft | 399 kts | 350° |
| 2026-04-28 21:37 | 53.37766 | -4.37044 | 34061 ft | 400 kts | 350° |
| 2026-04-28 21:37 | 53.40407 | -4.38525 | 33716 ft | 401 kts | 350° |
| 2026-04-28 21:37 | 53.43050 | -4.40009 | 33373 ft | 402 kts | 350° |
| 2026-04-28 21:38 | 53.45701 | -4.41500 | 33046 ft | 402 kts | 350° |
| 2026-04-28 21:38 | 53.48359 | -4.42996 | 32714 ft | 403 kts | 350° |
| 2026-04-28 21:38 | 53.51021 | -4.44497 | 32382 ft | 404 kts | 350° |
| 2026-04-28 21:38 | 53.53693 | -4.46005 | 32056 ft | 405 kts | 349° |
| 2026-04-28 21:39 | 53.56371 | -4.47518 | 31620 ft | 407 kts | 349° |
| 2026-04-28 21:39 | 53.59054 | -4.49039 | 31091 ft | 407 kts | 349° |
| 2026-04-28 21:39 | 53.61736 | -4.50557 | 30584 ft | 408 kts | 349° |
| 2026-04-28 21:39 | 53.64429 | -4.52085 | 30012 ft | 410 kts | 349° |
| 2026-04-28 21:40 | 53.67146 | -4.53625 | 29413 ft | 413 kts | 349° |
| 2026-04-28 21:40 | 53.69872 | -4.55181 | 28846 ft | 414 kts | 349° |
| 2026-04-28 21:40 | 53.72591 | -4.56732 | 28289 ft | 411 kts | 348° |
| 2026-04-28 21:40 | 53.75285 | -4.58270 | 27737 ft | 408 kts | 348° |
| 2026-04-28 21:41 | 53.77962 | -4.59799 | 27191 ft | 405 kts | 348° |
| 2026-04-28 21:41 | 53.80630 | -4.61324 | 26654 ft | 403 kts | 348° |
| 2026-04-28 21:41 | 53.83275 | -4.62840 | 26138 ft | 401 kts | 348° |
| 2026-04-28 21:41 | 53.85910 | -4.64352 | 25624 ft | 399 kts | 348° |
| 2026-04-28 21:42 | 53.88529 | -4.65855 | 25124 ft | 397 kts | 348° |
| 2026-04-28 21:42 | 53.91101 | -4.67334 | 24602 ft | 395 kts | 348° |
| 2026-04-28 21:42 | 53.93700 | -4.68831 | 24113 ft | 394 kts | 347° |
| 2026-04-28 21:42 | 53.96281 | -4.70321 | 23564 ft | 391 kts | 347° |
| 2026-04-28 21:43 | 53.98844 | -4.71802 | 22994 ft | 387 kts | 347° |
| 2026-04-28 21:43 | 54.01380 | -4.73268 | 22432 ft | 384 kts | 347° |
| 2026-04-28 21:43 | 54.03877 | -4.74838 | 21879 ft | 384 kts | 342° |
| 2026-04-28 21:43 | 54.06267 | -4.76898 | 21342 ft | 384 kts | 338° |
| 2026-04-28 21:44 | 54.08593 | -4.79128 | 20812 ft | 383 kts | 336° |
| 2026-04-28 21:44 | 54.10824 | -4.81611 | 20291 ft | 384 kts | 330° |
| 2026-04-28 21:44 | 54.12981 | -4.84268 | 19784 ft | 382 kts | 330° |
| 2026-04-28 21:44 | 54.15113 | -4.86953 | 19267 ft | 379 kts | 329° |
| 2026-04-28 21:45 | 54.17220 | -4.89622 | 18785 ft | 376 kts | 329° |
| 2026-04-28 21:45 | 54.19314 | -4.92278 | 18160 ft | 373 kts | 329° |
| 2026-04-28 21:45 | 54.21299 | -4.94816 | 17436 ft | 343 kts | 329° |
| 2026-04-28 21:45 | 54.23184 | -4.97203 | 16742 ft | 336 kts | 329° |
| 2026-04-28 21:46 | 54.25065 | -4.99587 | 16080 ft | 336 kts | 329° |
| 2026-04-28 21:46 | 54.26931 | -5.01966 | 15441 ft | 333 kts | 329° |
| 2026-04-28 21:46 | 54.28778 | -5.04321 | 14816 ft | 330 kts | 329° |
| 2026-04-28 21:46 | 54.30615 | -5.06666 | 14197 ft | 328 kts | 329° |
| 2026-04-28 21:47 | 54.32431 | -5.08987 | 13505 ft | 324 kts | 328° |
| 2026-04-28 21:47 | 54.34223 | -5.11278 | 12831 ft | 317 kts | 328° |
| 2026-04-28 21:47 | 54.35955 | -5.13503 | 12161 ft | 306 kts | 328° |
| 2026-04-28 21:47 | 54.37650 | -5.15671 | 11511 ft | 304 kts | 328° |
| 2026-04-28 21:48 | 54.39335 | -5.17831 | 10851 ft | 300 kts | 328° |
| 2026-04-28 21:48 | 54.40997 | -5.19967 | 10246 ft | 296 kts | 327° |
| 2026-04-28 21:48 | 54.42641 | -5.22083 | 9774 ft | 298 kts | 327° |
| 2026-04-28 21:48 | 54.44301 | -5.24220 | 9463 ft | 296 kts | 327° |
| 2026-04-28 21:49 | 54.45936 | -5.26334 | 9153 ft | 292 kts | 326° |
| 2026-04-28 21:49 | 54.47267 | -5.28969 | 8829 ft | 299 kts | 299° |
| 2026-04-28 21:49 | 54.47767 | -5.32428 | 8520 ft | 301 kts | 270° |
| 2026-04-28 21:49 | 54.47303 | -5.35890 | 8227 ft | 298 kts | 241° |
| 2026-04-28 21:50 | 54.46028 | -5.38546 | 7920 ft | 279 kts | 217° |
| 2026-04-28 21:50 | 54.44547 | -5.40533 | 7619 ft | 264 kts | 216° |
| 2026-04-28 21:50 | 54.43251 | -5.42713 | 7309 ft | 257 kts | 226° |
| 2026-04-28 21:50 | 54.42174 | -5.45101 | 7036 ft | 252 kts | 233° |
| 2026-04-28 21:51 | 54.41232 | -5.47657 | 6761 ft | 255 kts | 238° |
| 2026-04-28 21:51 | 54.40381 | -5.50323 | 6468 ft | 254 kts | 240° |
| 2026-04-28 21:51 | 54.39592 | -5.53022 | 6167 ft | 253 kts | 244° |
| 2026-04-28 21:51 | 54.38935 | -5.55810 | 5867 ft | 252 kts | 247° |
| 2026-04-28 21:52 | 54.38316 | -5.58613 | 5561 ft | 250 kts | 248° |
| 2026-04-28 21:52 | 54.37710 | -5.61406 | 5257 ft | 249 kts | 248° |
| 2026-04-28 21:52 | 54.37114 | -5.64145 | 4935 ft | 240 kts | 248° |
| 2026-04-28 21:52 | 54.36415 | -5.66693 | 4604 ft | 234 kts | 229° |
| 2026-04-28 21:53 | 54.35307 | -5.68721 | 4301 ft | 233 kts | 222° |
| 2026-04-28 21:53 | 54.34192 | -5.70722 | 4113 ft | 232 kts | 230° |
| 2026-04-28 21:53 | 54.33352 | -5.73099 | 4045 ft | 234 kts | 242° |
| 2026-04-28 21:53 | 54.32740 | -5.75699 | 4021 ft | 236 kts | 250° |
| 2026-04-28 21:54 | 54.32265 | -5.78386 | 4012 ft | 236 kts | 253° |
| 2026-04-28 21:54 | 54.31928 | -5.81097 | 4001 ft | 236 kts | 260° |
| 2026-04-28 21:54 | 54.31704 | -5.83800 | 3973 ft | 218 kts | 262° |
| 2026-04-28 21:54 | 54.31516 | -5.86326 | 3706 ft | 211 kts | 262° |
| 2026-04-28 21:55 | 54.31335 | -5.88767 | 3454 ft | 203 kts | 262° |
| 2026-04-28 21:55 | 54.31161 | -5.91124 | 3256 ft | 199 kts | 263° |
| 2026-04-28 21:55 | 54.30990 | -5.93489 | 3131 ft | 201 kts | 263° |
| 2026-04-28 21:55 | 54.30863 | -5.95878 | 3070 ft | 202 kts | 268° |
| 2026-04-28 21:56 | 54.30915 | -5.98275 | 3003 ft | 202 kts | 276° |
| 2026-04-28 21:56 | 54.31131 | -6.00637 | 2985 ft | 201 kts | 285° |
| 2026-04-28 21:56 | 54.31601 | -6.02872 | 3006 ft | 199 kts | 296° |
| 2026-04-28 21:56 | 54.32247 | -6.04956 | 3018 ft | 197 kts | 306° |
| 2026-04-28 21:57 | 54.33101 | -6.06778 | 3015 ft | 196 kts | 317° |
| 2026-04-28 21:57 | 54.34088 | -6.08352 | 3001 ft | 193 kts | 326° |
| 2026-04-28 21:57 | 54.35170 | -6.09729 | 3005 ft | 196 kts | 327° |
| 2026-04-28 21:57 | 54.36246 | -6.11161 | 3005 ft | 195 kts | 328° |
| 2026-04-28 21:58 | 54.37330 | -6.12548 | 2994 ft | 194 kts | 328° |
| 2026-04-28 21:58 | 54.38490 | -6.13655 | 2946 ft | 187 kts | 350° |
| 2026-04-28 21:58 | 54.39708 | -6.13474 | 2929 ft | 174 kts | 30° |
| 2026-04-28 21:58 | 54.40699 | -6.12337 | 2954 ft | 171 kts | 42° |
| 2026-04-28 21:59 | 54.41690 | -6.11184 | 2975 ft | 173 kts | 38° |
| 2026-04-28 21:59 | 54.42687 | -6.10039 | 2996 ft | 172 kts | 39° |
| 2026-04-28 21:59 | 54.43665 | -6.08862 | 3001 ft | 171 kts | 39° |
| 2026-04-28 22:00 | 54.45635 | -6.06535 | 3003 ft | 172 kts | 39° |
| 2026-04-28 22:00 | 54.46615 | -6.05370 | 3008 ft | 171 kts | 39° |
| 2026-04-28 22:00 | 54.47596 | -6.04207 | 3008 ft | 172 kts | 39° |
| 2026-04-28 22:00 | 54.48580 | -6.03038 | 2980 ft | 173 kts | 39° |
| 2026-04-28 22:01 | 54.49565 | -6.01868 | 2777 ft | 170 kts | 39° |
| 2026-04-28 22:01 | 54.50538 | -6.00710 | 2568 ft | 171 kts | 40° |
| 2026-04-28 22:01 | 54.51524 | -5.99537 | 2372 ft | 173 kts | 40° |
| 2026-04-28 22:01 | 54.52509 | -5.98364 | 2152 ft | 168 kts | 40° |
| 2026-04-28 22:02 | 54.53402 | -5.97302 | 1916 ft | 149 kts | 40° |
| 2026-04-28 22:02 | 54.54234 | -5.96306 | 1774 ft | 146 kts | 39° |
| 2026-04-28 22:02 | 54.55078 | -5.95302 | 1586 ft | 150 kts | 39° |
| 2026-04-28 22:02 | 54.55939 | -5.94273 | 1365 ft | 150 kts | 38° |
| 2026-04-28 22:03 | 54.56800 | -5.93246 | 1137 ft | 149 kts | 38° |
| 2026-04-28 22:03 | 54.57583 | -5.92312 | 905 ft | 128 kts | 37° |
| 2026-04-28 22:03 | 54.58285 | -5.91468 | 742 ft | 119 kts | 37° |
| 2026-04-28 22:03 | 54.58933 | -5.90647 | 647 ft | 114 kts | 37° |
| 2026-04-28 22:04 | 54.59621 | -5.89908 | 510 ft | 117 kts | 36° |
| 2026-04-28 22:04 | 54.60286 | -5.89067 | 299 ft | 116 kts | 32° |
| 2026-04-28 22:04 | 54.60947 | -5.88283 | 116 ft | 117 kts | 36° |
| 2026-04-28 22:04 | 54.61602 | -5.87501 | 13 ft | 105 kts | 34° |
| 2026-04-28 22:05 | 54.62121 | -5.86882 | 14 ft | 78 kts | 34° |
| 2026-04-28 22:05 | 54.62439 | -5.86549 | 19 ft | 26 kts | 8° |
| 2026-04-28 22:05 | 54.62467 | -5.86494 | 18 ft | 1 kts | 148° |
| 2026-04-28 22:05 | 54.62448 | -5.86498 | 18 ft | 5 kts | 202° |
| 2026-04-28 22:06 | 54.62398 | -5.86552 | 20 ft | 11 kts | 212° |
| 2026-04-28 22:06 | 54.62314 | -5.86651 | 18 ft | 19 kts | 214° |
| 2026-04-28 22:06 | 54.62188 | -5.86799 | 17 ft | 26 kts | 214° |
| 2026-04-28 22:06 | 54.62022 | -5.86996 | 14 ft | 31 kts | 214° |
| 2026-04-28 22:07 | 54.61866 | -5.87171 | 17 ft | 13 kts | 193° |
| 2026-04-28 22:07 | 54.61805 | -5.87105 | 16 ft | 10 kts | 124° |
| 2026-04-28 22:07 | 54.61770 | -5.87014 | 19 ft | 8 kts | 135° |
| 2026-04-28 22:07 | 54.61732 | -5.86989 | 19 ft | 1 kts | 195° |
| 2026-04-28 22:08 | 54.61696 | -5.87027 | 19 ft | 10 kts | 213° |
| 2026-04-28 22:08 | 54.61631 | -5.87106 | 19 ft | 12 kts | 214° |
| 2026-04-28 22:08 | 54.61552 | -5.87200 | 19 ft | 9 kts | 215° |
| 2026-04-28 22:08 | 54.61525 | -5.87224 | 20 ft | 5 kts | 191° |
| 2026-04-28 22:09 | 54.61481 | -5.87203 | 19 ft | 5 kts | 154° |
| 2026-04-28 22:09 | 54.61465 | -5.87190 | 20 ft | 2 kts | 156° |
| 2026-04-28 22:09 | 54.61463 | -5.87189 | 20 ft | 0 kts | 156° |